createdAt,value
2019-01-12T00:04:08.780Z,9.50
2019-01-12T00:09:12.528Z,9.10
2019-01-12T00:14:15.892Z,9.73
2019-01-12T00:19:19.420Z,10.27
2019-01-12T00:24:23.193Z,10.07
2019-01-12T00:29:26.584Z,10.10
2019-01-12T00:34:29.977Z,9.77
2019-01-12T00:39:33.373Z,9.83
2019-01-12T00:44:36.792Z,10.13
2019-01-12T00:49:40.187Z,10.00
2019-01-12T00:54:43.571Z,9.87
2019-01-12T00:59:46.979Z,9.73
2019-01-12T01:04:50.374Z,10.40
2019-01-12T01:09:53.769Z,10.83
2019-01-12T01:14:57.164Z,10.33
2019-01-12T01:20:00.889Z,12.20
2019-01-12T01:25:06.393Z,10.37
2019-01-12T01:30:13.332Z,10.53
2019-01-12T01:35:16.739Z,10.97
2019-01-12T01:40:20.128Z,9.93
2019-01-12T01:45:23.920Z,10.63
2019-01-12T01:50:27.607Z,11.63
2019-01-12T01:55:31.012Z,11.00
2019-01-12T02:00:34.410Z,10.20
2019-01-12T02:05:38.196Z,11.33
2019-01-12T02:10:41.592Z,11.97
2019-01-12T02:15:45.446Z,10.03
2019-01-12T02:20:48.840Z,12.37
2019-01-12T02:25:52.552Z,10.13
2019-01-12T02:30:55.949Z,7.57
2019-01-12T02:35:59.362Z,12.33
2019-01-12T02:41:02.757Z,12.33
2019-01-12T02:46:06.152Z,12.43
2019-01-12T02:51:09.558Z,14.53
2019-01-12T02:56:13.297Z,12.30
2019-01-12T03:01:16.749Z,12.20
2019-01-12T03:06:20.149Z,12.47
2019-01-12T03:11:23.551Z,11.87
2019-01-12T03:16:26.947Z,10.87
2019-01-12T03:21:30.341Z,14.10
2019-01-12T03:26:34.108Z,13.77
2019-01-12T03:31:37.510Z,13.00
2019-01-12T03:36:40.982Z,13.90
2019-01-12T03:41:44.381Z,13.23
2019-01-12T03:46:47.796Z,12.27
2019-01-12T03:51:51.208Z,15.78
2019-01-12T03:56:54.614Z,12.53
2019-01-12T04:01:58.341Z,12.90
2019-01-12T04:07:01.736Z,12.10
2019-01-12T04:12:05.144Z,12.40
2019-01-12T04:17:08.557Z,15.53
2019-01-12T04:22:11.964Z,12.37
2019-01-12T04:27:15.365Z,12.43
2019-01-12T04:32:19.121Z,15.95
2019-01-12T04:37:22.529Z,12.80
2019-01-12T04:42:25.933Z,12.90
2019-01-12T04:47:29.554Z,14.37
2019-01-12T04:52:32.966Z,12.53
2019-01-12T04:57:36.382Z,12.93
2019-01-12T05:02:39.805Z,12.33
2019-01-12T05:07:43.326Z,12.07
2019-01-12T05:12:46.729Z,11.50
2019-01-12T05:17:50.146Z,10.93
2019-01-12T05:22:53.594Z,11.07
2019-01-12T05:27:56.977Z,11.37
2019-01-12T05:33:00.792Z,12.40
2019-01-12T05:38:04.194Z,9.17
2019-01-12T05:43:08.226Z,8.03
2019-01-12T05:48:11.669Z,11.23
2019-01-12T05:53:15.094Z,13.77
2019-01-12T05:58:18.902Z,15.57
2019-01-12T06:03:22.621Z,14.23
2019-01-12T06:08:26.028Z,15.73
2019-01-12T06:13:29.438Z,15.17
2019-01-12T06:18:33.174Z,20.30
2019-01-12T06:23:36.627Z,14.40
2019-01-12T06:28:40.021Z,16.45
2019-01-12T06:33:43.432Z,17.67
2019-01-12T06:38:47.486Z,15.70
2019-01-12T06:43:50.881Z,15.07
2019-01-12T06:48:54.306Z,15.93
2019-01-12T06:53:57.729Z,16.30
2019-01-12T06:59:01.411Z,15.00
2019-01-12T07:04:04.818Z,18.57
2019-01-12T07:09:08.239Z,14.37
2019-01-12T07:14:11.761Z,13.20
2019-01-12T07:19:15.175Z,14.20
2019-01-12T07:24:18.597Z,19.10
2019-01-12T07:29:22.301Z,16.50
2019-01-12T07:34:25.697Z,15.23
2019-01-12T07:39:29.461Z,13.87
2019-01-12T07:44:32.879Z,14.10
2019-01-12T07:49:36.322Z,11.90
2019-01-12T07:54:39.737Z,12.87
2019-01-12T07:59:43.441Z,12.37
2019-01-12T08:04:46.872Z,15.58
2019-01-12T08:09:50.270Z,17.33
2019-01-12T08:14:54.029Z,17.10
2019-01-12T08:19:57.458Z,19.30
2019-01-12T08:25:00.878Z,17.77
2019-01-12T08:30:10.612Z,17.40
2019-01-12T08:35:14.607Z,19.77
2019-01-12T08:40:18.001Z,15.07
2019-01-12T08:45:21.184Z,20.37
2019-01-12T08:50:24.590Z,23.42
2019-01-12T08:55:27.998Z,13.30
2019-01-12T09:00:31.409Z,12.67
2019-01-12T09:05:34.825Z,17.42
2019-01-12T09:10:38.248Z,13.17
2019-01-12T09:15:42.101Z,13.57
2019-01-12T09:20:45.525Z,19.00
2019-01-12T09:25:49.246Z,13.43
2019-01-12T09:30:52.983Z,12.73
2019-01-12T09:35:56.386Z,16.02
2019-01-12T09:40:59.793Z,20.23
2019-01-12T09:46:03.249Z,6.90
2019-01-12T09:51:07.019Z,5.50
2019-01-12T09:56:10.782Z,7.77
2019-01-12T10:01:14.561Z,8.87
2019-01-12T10:06:17.970Z,8.70
2019-01-12T10:11:21.386Z,8.63
2019-01-12T10:16:24.777Z,8.43
2019-01-12T10:21:28.570Z,7.43
2019-01-12T10:26:32.262Z,8.10
2019-01-12T10:31:35.695Z,9.67
2019-01-12T10:36:39.109Z,9.13
2019-01-12T10:41:42.540Z,5.57
2019-01-12T10:46:45.977Z,6.70
2019-01-12T10:51:49.401Z,6.00
2019-01-12T10:56:52.835Z,5.70
2019-01-12T11:01:56.245Z,6.33
2019-01-12T11:06:59.655Z,5.90
2019-01-12T11:12:03.463Z,5.93
2019-01-12T11:17:07.234Z,7.13
2019-01-12T11:22:10.645Z,6.50
2019-01-12T11:27:14.044Z,6.40
2019-01-12T11:32:17.481Z,8.00
2019-01-12T11:37:20.898Z,7.77
2019-01-12T11:42:24.325Z,7.47
2019-01-12T11:47:27.726Z,7.73
2019-01-12T11:52:31.514Z,6.30
2019-01-12T11:57:34.932Z,8.63
2019-01-12T12:02:38.337Z,7.43
2019-01-12T12:07:41.827Z,6.87
2019-01-12T12:12:45.242Z,5.77
2019-01-12T12:17:48.685Z,6.80
2019-01-12T12:22:52.085Z,5.10
2019-01-12T12:27:55.802Z,6.03
2019-01-12T12:32:59.207Z,5.37
2019-01-12T12:38:02.604Z,6.57
2019-01-12T12:43:06.048Z,5.97
2019-01-12T12:48:09.455Z,5.43
2019-01-12T12:53:12.858Z,5.58
2019-01-12T12:58:16.279Z,3.73
2019-01-12T13:03:20.092Z,4.23
2019-01-12T13:08:23.784Z,3.27
2019-01-12T13:13:27.189Z,3.10
2019-01-12T13:18:30.589Z,3.03
2019-01-12T13:23:33.990Z,3.50
2019-01-12T13:28:37.786Z,4.77
2019-01-12T13:33:41.262Z,4.70
2019-01-12T13:38:44.662Z,3.90
2019-01-12T13:43:48.446Z,3.87
2019-01-12T13:48:52.152Z,5.00
2019-01-12T13:53:55.539Z,4.43
2019-01-12T13:58:58.934Z,7.35
2019-01-12T14:04:02.897Z,5.47
2019-01-12T14:09:07.834Z,5.20
2019-01-12T14:14:11.288Z,4.93
2019-01-12T14:19:14.918Z,5.07
2019-01-12T14:24:18.329Z,5.07
2019-01-12T14:29:22.693Z,5.07
2019-01-12T14:34:26.412Z,6.42
2019-01-12T14:39:30.350Z,9.80
2019-01-12T14:44:33.726Z,5.03
2019-01-12T14:49:37.445Z,4.80
2019-01-12T14:54:40.854Z,5.77
2019-01-12T14:59:44.259Z,5.03
2019-01-12T15:04:48.066Z,6.33
2019-01-12T15:09:51.445Z,7.37
2019-01-12T15:14:54.845Z,4.90
2019-01-12T15:19:58.292Z,3.90
2019-01-12T15:25:01.708Z,4.43
2019-01-12T15:30:14.323Z,3.53
2019-01-12T15:35:18.553Z,3.67
2019-01-12T15:40:23.140Z,4.60
2019-01-12T15:45:27.023Z,4.37
2019-01-12T15:50:30.436Z,4.60
2019-01-12T15:55:34.202Z,5.72
2019-01-12T16:00:37.606Z,5.73
2019-01-12T16:05:41.072Z,6.83
2019-01-12T16:10:44.478Z,9.60
2019-01-12T16:15:48.204Z,10.18
2019-01-12T16:20:51.620Z,10.23
2019-01-12T16:25:55.135Z,11.30
2019-01-12T16:30:58.572Z,6.60
2019-01-12T16:36:02.358Z,12.77
2019-01-12T16:41:05.766Z,7.47
2019-01-12T16:46:09.458Z,7.50
2019-01-12T16:51:12.858Z,8.47
2019-01-12T16:56:16.281Z,7.97
2019-01-12T17:01:19.685Z,9.67
2019-01-12T17:06:23.109Z,7.73
2019-01-12T17:11:26.922Z,8.70
2019-01-12T17:16:30.386Z,6.67
2019-01-12T17:21:34.102Z,8.20
2019-01-12T17:26:37.831Z,6.23
2019-01-12T17:31:41.321Z,9.43
2019-01-12T17:36:45.545Z,8.70
2019-01-12T17:41:49.040Z,7.73
2019-01-12T17:46:52.950Z,6.40
2019-01-12T17:51:56.693Z,6.30
2019-01-12T17:57:00.097Z,7.47
2019-01-12T18:02:03.514Z,7.13
2019-01-12T18:07:06.968Z,7.83
2019-01-12T18:12:10.504Z,7.12
2019-01-12T18:17:13.960Z,6.03
2019-01-12T18:22:17.496Z,7.00
2019-01-12T18:27:20.901Z,6.73
2019-01-12T18:32:24.382Z,5.93
2019-01-12T18:37:27.822Z,5.77
2019-01-12T18:42:31.293Z,4.23
2019-01-12T18:47:34.738Z,6.28
2019-01-12T18:52:38.162Z,6.40
2019-01-12T18:57:41.557Z,8.17
2019-01-12T19:02:44.958Z,6.27
2019-01-12T19:07:48.368Z,5.97
2019-01-12T19:12:52.085Z,6.20
2019-01-12T19:17:55.490Z,5.77
2019-01-12T19:22:58.898Z,6.97
2019-01-12T19:28:02.309Z,7.23
2019-01-12T19:33:05.701Z,8.35
2019-01-12T19:38:09.106Z,7.07
2019-01-12T19:43:12.512Z,7.03
2019-01-12T19:48:15.926Z,5.07
2019-01-12T19:53:20.529Z,5.23
2019-01-12T19:58:23.933Z,5.60
2019-01-12T20:03:27.338Z,5.90
2019-01-12T20:08:31.207Z,6.47
2019-01-12T20:13:35.781Z,6.00
2019-01-12T20:18:39.859Z,5.73
2019-01-12T20:23:43.961Z,6.17
2019-01-12T20:28:47.526Z,5.93
2019-01-12T20:34:00.337Z,5.50
2019-01-12T20:39:18.742Z,5.60
2019-01-12T20:44:40.620Z,5.83
2019-01-12T20:49:47.617Z,5.03
2019-01-12T20:55:18.651Z,5.40
2019-01-12T21:00:42.119Z,4.17
2019-01-12T21:05:48.797Z,4.40
2019-01-12T21:10:58.344Z,4.00
2019-01-12T21:16:06.386Z,2.83
2019-01-12T21:21:09.830Z,2.67
2019-01-12T21:26:13.342Z,2.80
2019-01-12T21:31:16.786Z,2.80
2019-01-12T21:36:21.213Z,2.10
2019-01-12T21:41:24.918Z,2.20
2019-01-12T21:46:28.766Z,3.10
2019-01-12T21:51:32.214Z,3.23
2019-01-12T21:56:35.694Z,2.80
2019-01-12T22:01:39.117Z,2.53
2019-01-12T22:06:43.051Z,2.33
2019-01-12T22:11:46.543Z,2.10
2019-01-12T22:16:50.506Z,2.90
2019-01-12T22:21:54.352Z,2.30
2019-01-12T22:26:57.874Z,2.83
2019-01-12T22:32:01.738Z,2.40
2019-01-12T22:37:05.176Z,2.30
2019-01-12T22:42:08.641Z,2.47
2019-01-12T22:47:12.093Z,2.57
2019-01-12T22:52:16.040Z,2.13
2019-01-12T22:57:19.576Z,2.23
2019-01-12T23:02:23.378Z,2.00
2019-01-12T23:07:26.902Z,2.43
2019-01-12T23:12:30.337Z,2.20
2019-01-12T23:17:33.819Z,1.90
2019-01-12T23:22:37.251Z,2.90
2019-01-12T23:27:40.711Z,2.57
2019-01-12T23:32:44.165Z,2.47
2019-01-12T23:37:47.630Z,1.93
2019-01-12T23:42:51.026Z,1.80
2019-01-12T23:47:54.466Z,1.83
2019-01-12T23:52:58.226Z,1.80
2019-01-12T23:58:01.663Z,1.53
